createdAt,value
2023-02-27T00:00:14.835Z,30.69
2023-02-27T00:02:46.366Z,30.58
2023-02-27T00:05:13.939Z,30.98
2023-02-27T00:07:41.217Z,30.02
2023-02-27T00:10:09.254Z,31.10
2023-02-27T00:12:38.547Z,30.88
2023-02-27T00:15:11.243Z,30.35
2023-02-27T00:17:38.647Z,29.96
2023-02-27T00:20:06.611Z,30.44
2023-02-27T00:22:33.790Z,29.97
2023-02-27T00:25:01.300Z,30.20
2023-02-27T00:27:28.473Z,31.16
2023-02-27T00:29:55.600Z,30.83
2023-02-27T00:32:23.291Z,31.66
2023-02-27T00:34:50.570Z,30.79
2023-02-27T00:37:17.928Z,30.39
2023-02-27T00:39:45.345Z,30.68
2023-02-27T00:42:12.469Z,30.58
2023-02-27T00:44:40.837Z,30.60
2023-02-27T00:47:08.228Z,30.97
2023-02-27T00:49:35.380Z,31.73
2023-02-27T00:52:02.507Z,31.18
2023-02-27T00:54:29.891Z,32.19
2023-02-27T00:56:57.061Z,31.19
2023-02-27T00:59:24.225Z,31.67
2023-02-27T01:01:52.681Z,30.74
2023-02-27T01:04:19.849Z,30.81
2023-02-27T01:06:46.975Z,32.09
2023-02-27T01:09:14.378Z,31.30
2023-02-27T01:11:41.542Z,31.31
2023-02-27T01:14:08.720Z,31.72
2023-02-27T01:16:36.205Z,32.51
2023-02-27T01:19:03.491Z,32.33
2023-02-27T01:21:30.640Z,32.29
2023-02-27T01:23:58.020Z,31.49
2023-02-27T01:26:25.298Z,32.61
2023-02-27T01:28:53.554Z,32.94
2023-02-27T01:31:20.989Z,33.11
2023-02-27T01:33:49.017Z,33.79
2023-02-27T01:36:16.232Z,33.63
2023-02-27T01:38:43.669Z,33.39
2023-02-27T01:41:10.841Z,33.21
2023-02-27T01:43:57.492Z,33.08
2023-02-27T01:46:25.160Z,32.20
2023-02-27T01:48:54.415Z,32.56
2023-02-27T01:51:21.573Z,34.10
2023-02-27T01:53:49.598Z,33.44
2023-02-27T01:56:18.324Z,32.10
2023-02-27T01:58:45.760Z,32.11
2023-02-27T02:01:13.512Z,32.24
2023-02-27T02:03:56.566Z,32.13
2023-02-27T02:06:23.762Z,32.03
2023-02-27T02:08:51.445Z,32.45
2023-02-27T02:11:19.409Z,32.34
2023-02-27T02:13:46.832Z,32.29
2023-02-27T02:16:26.085Z,32.37
2023-02-27T02:19:05.554Z,33.41
2023-02-27T02:21:42.495Z,33.76
2023-02-27T02:24:25.505Z,33.09
2023-02-27T02:27:04.597Z,33.01
2023-02-27T02:29:48.097Z,33.41
2023-02-27T02:32:24.550Z,33.20
2023-02-27T02:35:10.154Z,33.28
2023-02-27T02:37:52.609Z,33.77
2023-02-27T02:40:28.952Z,32.30
2023-02-27T02:43:02.294Z,32.35
2023-02-27T02:45:32.445Z,33.33
2023-02-27T02:48:02.707Z,33.35
2023-02-27T02:50:32.955Z,32.74
2023-02-27T02:53:22.180Z,32.08
2023-02-27T02:55:51.282Z,33.05
2023-02-27T02:58:26.146Z,33.93
2023-02-27T03:00:55.591Z,32.91
2023-02-27T03:03:25.200Z,34.00
2023-02-27T03:05:54.265Z,33.11
2023-02-27T03:08:22.634Z,31.79
2023-02-27T03:10:51.109Z,31.82
2023-02-27T03:13:21.224Z,34.70
2023-02-27T03:15:51.806Z,33.37
2023-02-27T03:18:24.662Z,32.12
2023-02-27T03:20:53.189Z,32.30
2023-02-27T03:23:30.503Z,32.05
2023-02-27T03:25:58.460Z,31.75
2023-02-27T03:28:27.366Z,31.96
2023-02-27T03:31:10.172Z,32.06
2023-02-27T03:33:39.231Z,31.99
2023-02-27T03:36:06.505Z,32.81
2023-02-27T03:38:41.065Z,32.79
2023-02-27T03:41:25.929Z,32.27
2023-02-27T03:44:20.682Z,32.57
2023-02-27T03:46:48.119Z,33.59
2023-02-27T03:49:15.558Z,33.86
2023-02-27T03:51:42.715Z,33.85
2023-02-27T03:54:11.464Z,32.69
2023-02-27T03:56:40.595Z,32.67
2023-02-27T03:59:08.819Z,33.16
2023-02-27T04:01:37.164Z,33.35
2023-02-27T04:04:06.867Z,33.76
2023-02-27T04:06:54.844Z,32.79
2023-02-27T04:09:29.291Z,34.03
2023-02-27T04:12:16.640Z,33.04
2023-02-27T04:14:47.795Z,33.74
2023-02-27T04:17:21.663Z,32.74
2023-02-27T04:20:10.517Z,33.30
2023-02-27T04:22:43.531Z,34.23
2023-02-27T04:25:29.563Z,33.71
2023-02-27T04:28:04.701Z,34.23
2023-02-27T04:30:50.730Z,32.46
2023-02-27T04:33:41.162Z,33.05
2023-02-27T04:36:08.575Z,32.52
2023-02-27T04:38:37.880Z,33.02
2023-02-27T04:41:15.910Z,32.72
2023-02-27T04:43:43.335Z,33.13
2023-02-27T04:46:11.007Z,32.79
2023-02-27T04:48:47.176Z,32.39
2023-02-27T04:51:15.590Z,32.15
2023-02-27T04:53:45.784Z,32.03
2023-02-27T04:56:27.816Z,32.52
2023-02-27T04:58:57.068Z,31.99
2023-02-27T05:01:34.992Z,31.99
2023-02-27T05:04:02.429Z,32.43
2023-02-27T05:06:30.561Z,32.16
2023-02-27T05:09:13.004Z,32.72
2023-02-27T05:11:51.456Z,32.03
2023-02-27T05:14:19.444Z,33.24
2023-02-27T05:16:49.790Z,32.51
2023-02-27T05:19:17.029Z,31.93
2023-02-27T05:21:55.486Z,30.77
2023-02-27T05:24:36.516Z,31.58
2023-02-27T05:27:03.596Z,32.20
2023-02-27T05:29:30.924Z,31.79
2023-02-27T05:32:05.778Z,31.55
2023-02-27T05:34:37.953Z,31.45
2023-02-27T05:37:07.497Z,31.40
2023-02-27T05:39:36.210Z,32.18
2023-02-27T05:42:23.611Z,31.06
2023-02-27T05:44:53.002Z,31.21
2023-02-27T05:47:20.974Z,31.13
2023-02-27T05:49:55.453Z,31.92
2023-02-27T05:52:23.585Z,32.16
2023-02-27T05:54:56.126Z,32.19
2023-02-27T05:57:24.713Z,33.09
2023-02-27T06:00:00.673Z,32.66
2023-02-27T06:02:28.229Z,33.92
2023-02-27T06:04:56.319Z,33.27
2023-02-27T06:07:23.470Z,32.26
2023-02-27T06:09:50.973Z,33.25
2023-02-27T06:12:19.478Z,32.55
2023-02-27T06:14:46.617Z,31.94
2023-02-27T06:17:13.727Z,32.87
2023-02-27T06:19:41.147Z,31.78
2023-02-27T06:22:09.092Z,32.28
2023-02-27T06:24:36.232Z,32.78
2023-02-27T06:27:03.750Z,33.00
2023-02-27T06:29:30.877Z,32.63
2023-02-27T06:31:58.038Z,31.67
2023-02-27T06:34:25.491Z,32.20
2023-02-27T06:36:52.641Z,32.57
2023-02-27T06:39:19.795Z,31.81
2023-02-27T06:41:47.228Z,31.57
2023-02-27T06:44:14.453Z,31.60
2023-02-27T06:46:41.667Z,31.53
2023-02-27T06:49:09.128Z,30.53
2023-02-27T06:51:36.265Z,30.60
2023-02-27T06:54:03.476Z,30.53
2023-02-27T06:56:30.883Z,30.15
2023-02-27T06:58:59.521Z,29.39
2023-02-27T07:01:26.855Z,29.75
2023-02-27T07:03:54.296Z,29.74
2023-02-27T07:06:21.540Z,30.03
2023-02-27T07:09:09.022Z,29.24
2023-02-27T07:11:36.180Z,29.05
2023-02-27T07:14:03.701Z,28.68
2023-02-27T07:16:31.189Z,31.33
2023-02-27T07:18:58.909Z,29.13
2023-02-27T07:21:26.062Z,28.74
2023-02-27T07:23:53.504Z,29.56
2023-02-27T07:26:20.612Z,29.97
2023-02-27T07:28:47.798Z,28.75
2023-02-27T07:31:15.343Z,28.17
2023-02-27T07:33:42.507Z,29.18
2023-02-27T07:36:09.693Z,28.31
2023-02-27T07:38:37.142Z,29.20
2023-02-27T07:41:04.303Z,29.36
2023-02-27T07:43:31.474Z,27.23
2023-02-27T07:45:59.517Z,26.87
2023-02-27T07:48:26.684Z,26.10
2023-02-27T07:50:53.879Z,26.21
2023-02-27T07:53:21.319Z,26.07
2023-02-27T07:55:48.505Z,24.80
2023-02-27T07:58:15.677Z,23.71
2023-02-27T08:00:43.108Z,24.41
2023-02-27T08:03:10.525Z,24.94
2023-02-27T08:05:37.658Z,26.16
2023-02-27T08:08:04.838Z,25.28
2023-02-27T08:10:32.269Z,25.97
2023-02-27T08:12:59.478Z,26.39
2023-02-27T08:15:26.655Z,27.78
2023-02-27T08:17:54.039Z,26.23
2023-02-27T08:20:24.389Z,27.04
2023-02-27T08:22:51.598Z,27.15
2023-02-27T08:25:19.231Z,26.21
2023-02-27T08:27:46.378Z,26.81
2023-02-27T08:30:13.740Z,26.33
2023-02-27T08:32:41.995Z,26.77
2023-02-27T08:35:09.340Z,28.70
2023-02-27T08:37:36.519Z,27.20
2023-02-27T08:40:06.875Z,26.21
2023-02-27T08:42:34.320Z,26.51
2023-02-27T08:45:01.448Z,26.76
2023-02-27T08:47:28.897Z,26.83
2023-02-27T08:49:56.550Z,26.86
2023-02-27T08:52:25.015Z,26.38
2023-02-27T08:54:52.552Z,28.36
2023-02-27T08:57:19.766Z,28.10
2023-02-27T08:59:46.955Z,29.94
2023-02-27T09:02:14.400Z,28.17
2023-02-27T09:04:41.778Z,30.27
2023-02-27T09:07:08.948Z,29.83
2023-02-27T09:09:36.353Z,29.48
2023-02-27T09:12:03.602Z,32.41
2023-02-27T09:14:30.733Z,30.97
2023-02-27T09:16:58.764Z,31.65
2023-02-27T09:19:25.945Z,32.37
2023-02-27T09:21:53.137Z,30.85
2023-02-27T09:24:21.080Z,32.95
2023-02-27T09:26:48.795Z,31.32
2023-02-27T09:29:16.248Z,32.21
2023-02-27T09:31:43.830Z,33.96
2023-02-27T09:34:11.072Z,33.09
2023-02-27T09:36:38.191Z,33.39
2023-02-27T09:39:05.622Z,34.75
2023-02-27T09:41:51.649Z,35.09
2023-02-27T09:44:46.792Z,35.03
2023-02-27T09:47:34.605Z,34.59
2023-02-27T09:50:20.388Z,33.76
2023-02-27T09:52:47.574Z,33.21
2023-02-27T09:55:19.893Z,32.36
2023-02-27T09:57:46.993Z,32.18
2023-02-27T10:00:22.651Z,35.67
2023-02-27T10:02:55.980Z,32.94
2023-02-27T10:05:27.229Z,34.11
2023-02-27T10:08:14.851Z,32.80
2023-02-27T10:10:44.840Z,32.15
2023-02-27T10:13:18.257Z,33.12
2023-02-27T10:15:49.036Z,34.17
2023-02-27T10:18:26.981Z,32.73
2023-02-27T10:20:58.513Z,31.40
2023-02-27T10:23:29.883Z,32.09
2023-02-27T10:25:57.123Z,31.80
2023-02-27T10:28:25.822Z,32.03
2023-02-27T10:30:54.790Z,31.91
2023-02-27T10:33:27.336Z,30.69
2023-02-27T10:35:55.777Z,31.10
2023-02-27T10:38:29.390Z,30.32
2023-02-27T10:40:57.885Z,31.22
2023-02-27T10:43:25.204Z,30.55
2023-02-27T10:45:52.982Z,29.88
2023-02-27T10:48:20.637Z,30.53
2023-02-27T10:50:52.245Z,29.46
2023-02-27T10:53:23.399Z,29.33
2023-02-27T10:56:04.211Z,29.22
2023-02-27T10:58:34.656Z,29.42
2023-02-27T11:01:04.019Z,29.76
2023-02-27T11:03:35.972Z,30.05
2023-02-27T11:06:07.477Z,29.85
2023-02-27T11:08:34.885Z,29.09
2023-02-27T11:11:06.266Z,29.01
2023-02-27T11:13:35.070Z,28.81
2023-02-27T11:16:05.255Z,29.18
2023-02-27T11:18:32.508Z,30.16
2023-02-27T11:21:17.978Z,28.71
2023-02-27T11:23:51.063Z,28.25
2023-02-27T11:26:40.690Z,30.90
2023-02-27T11:29:15.052Z,29.78
2023-02-27T11:31:48.704Z,28.90
2023-02-27T11:34:27.246Z,27.44
2023-02-27T11:36:56.800Z,28.00
2023-02-27T11:39:29.275Z,27.96
2023-02-27T11:41:57.159Z,25.97
2023-02-27T11:44:50.175Z,27.66
2023-02-27T11:47:17.131Z,27.38
2023-02-27T11:49:56.586Z,28.63
2023-02-27T11:52:25.717Z,28.77
2023-02-27T11:54:54.563Z,28.10
2023-02-27T11:57:22.276Z,28.55
2023-02-27T11:59:51.030Z,27.43
2023-02-27T12:02:30.493Z,27.05
2023-02-27T12:05:07.058Z,28.45
2023-02-27T12:07:34.206Z,26.63
2023-02-27T12:10:04.677Z,24.97
2023-02-27T12:12:57.917Z,27.63
2023-02-27T12:15:28.382Z,26.03
2023-02-27T12:18:10.756Z,25.79
2023-02-27T12:20:40.945Z,27.73
2023-02-27T12:23:14.761Z,25.35
2023-02-27T12:25:52.735Z,24.62
2023-02-27T12:28:46.406Z,25.89
2023-02-27T12:31:22.840Z,26.67
2023-02-27T12:33:52.523Z,27.58
2023-02-27T12:36:20.006Z,25.82
2023-02-27T12:38:47.184Z,27.96
2023-02-27T12:41:14.483Z,25.99
2023-02-27T12:43:46.277Z,27.51
2023-02-27T12:46:13.447Z,25.81
2023-02-27T12:48:56.533Z,27.20
2023-02-27T12:51:32.159Z,26.28
2023-02-27T12:53:59.233Z,28.58
2023-02-27T12:56:29.566Z,25.91
2023-02-27T12:58:56.846Z,27.58
2023-02-27T13:01:31.514Z,26.54
2023-02-27T13:04:07.485Z,26.91
2023-02-27T13:06:38.182Z,25.59
2023-02-27T13:09:08.805Z,25.13
2023-02-27T13:11:43.287Z,26.88
2023-02-27T13:14:29.386Z,29.21
2023-02-27T13:16:57.483Z,27.36
2023-02-27T13:19:26.901Z,26.19
2023-02-27T13:21:54.755Z,25.27
2023-02-27T13:24:28.923Z,28.96
2023-02-27T13:26:56.380Z,27.12
2023-02-27T13:29:24.584Z,26.82
2023-02-27T13:31:54.892Z,26.09
2023-02-27T13:34:22.384Z,25.45
2023-02-27T13:36:51.311Z,27.87
2023-02-27T13:39:36.826Z,25.71
2023-02-27T13:42:04.282Z,25.07
2023-02-27T13:44:39.219Z,25.75
2023-02-27T13:47:25.126Z,25.58
2023-02-27T13:49:52.466Z,26.83
2023-02-27T13:52:27.562Z,27.47
2023-02-27T13:54:57.293Z,27.75
2023-02-27T13:57:31.794Z,27.58
2023-02-27T14:00:09.056Z,27.09
2023-02-27T14:02:58.316Z,26.33
2023-02-27T14:05:30.292Z,27.37
2023-02-27T14:07:58.758Z,25.91
2023-02-27T14:10:27.261Z,26.67
2023-02-27T14:12:54.922Z,28.71
2023-02-27T14:15:22.037Z,27.57
2023-02-27T14:17:59.629Z,29.40
2023-02-27T14:20:33.156Z,28.25
2023-02-27T14:23:06.637Z,29.36
2023-02-27T14:25:47.089Z,29.91
2023-02-27T14:28:22.196Z,29.24
2023-02-27T14:31:03.320Z,28.41
2023-02-27T14:33:40.623Z,28.38
2023-02-27T14:36:20.039Z,30.39
2023-02-27T14:38:47.397Z,30.03
2023-02-27T14:41:23.155Z,30.45
2023-02-27T14:43:55.982Z,29.67
2023-02-27T14:46:23.638Z,29.64
2023-02-27T14:49:13.864Z,30.33
2023-02-27T14:51:41.318Z,28.83
2023-02-27T14:54:15.865Z,28.83
2023-02-27T14:56:55.424Z,28.93
2023-02-27T14:59:30.458Z,29.67
2023-02-27T15:01:58.461Z,28.43
2023-02-27T15:04:29.315Z,29.41
2023-02-27T15:06:56.624Z,29.04
2023-02-27T15:09:35.874Z,29.16
2023-02-27T15:12:04.618Z,29.35
2023-02-27T15:14:34.185Z,29.62
2023-02-27T15:17:01.666Z,30.24
2023-02-27T15:19:29.529Z,31.71
2023-02-27T15:22:02.237Z,29.67
2023-02-27T15:24:47.918Z,30.07
2023-02-27T15:27:18.476Z,30.56
2023-02-27T15:29:49.909Z,28.68
2023-02-27T15:32:46.693Z,28.96
2023-02-27T15:35:24.380Z,30.05
2023-02-27T15:37:52.460Z,28.60
2023-02-27T15:40:20.749Z,29.21
2023-02-27T15:42:48.077Z,29.02
2023-02-27T15:45:17.406Z,28.15
2023-02-27T15:47:44.610Z,28.58
2023-02-27T15:50:23.319Z,28.56
2023-02-27T15:52:50.695Z,29.32
2023-02-27T15:55:38.102Z,28.51
2023-02-27T15:58:08.540Z,28.33
2023-02-27T16:00:35.799Z,29.46
2023-02-27T16:03:04.077Z,29.96
2023-02-27T16:05:33.969Z,29.31
2023-02-27T16:08:02.627Z,28.86
2023-02-27T16:10:30.910Z,28.49
2023-02-27T16:12:58.085Z,28.17
2023-02-27T16:15:36.379Z,28.54
2023-02-27T16:18:07.816Z,27.91
2023-02-27T16:20:40.913Z,27.83
2023-02-27T16:23:27.776Z,27.66
2023-02-27T16:26:01.110Z,28.00
2023-02-27T16:28:48.813Z,27.74
2023-02-27T16:31:22.817Z,27.09
2023-02-27T16:33:50.577Z,27.17
2023-02-27T16:36:19.004Z,27.18
2023-02-27T16:38:46.472Z,27.13
2023-02-27T16:41:17.416Z,26.84
2023-02-27T16:43:46.124Z,26.82
2023-02-27T16:46:19.886Z,26.80
2023-02-27T16:48:51.202Z,27.00
2023-02-27T16:51:19.859Z,28.06
2023-02-27T16:53:47.674Z,27.88
2023-02-27T16:56:15.045Z,26.96
2023-02-27T16:58:42.851Z,26.80
2023-02-27T17:01:10.122Z,27.35
2023-02-27T17:03:37.334Z,26.94
2023-02-27T17:06:05.148Z,27.12
2023-02-27T17:08:32.304Z,27.34
2023-02-27T17:10:59.539Z,27.26
2023-02-27T17:13:26.964Z,27.49
2023-02-27T17:15:54.131Z,27.44
2023-02-27T17:18:21.367Z,27.81
2023-02-27T17:20:51.156Z,27.69
2023-02-27T17:23:18.543Z,27.54
2023-02-27T17:25:45.891Z,27.64
2023-02-27T17:28:13.328Z,27.60
2023-02-27T17:30:40.894Z,27.48
2023-02-27T17:33:08.114Z,27.84
2023-02-27T17:35:35.717Z,28.25
2023-02-27T17:38:02.934Z,28.30
2023-02-27T17:40:30.480Z,28.68
2023-02-27T17:42:57.924Z,29.00
2023-02-27T17:45:27.162Z,29.18
2023-02-27T17:47:54.433Z,28.74
2023-02-27T17:50:21.994Z,29.29
2023-02-27T17:52:49.285Z,29.37
2023-02-27T17:55:16.970Z,29.15
2023-02-27T17:57:44.428Z,28.94
2023-02-27T18:00:14.402Z,28.60
2023-02-27T18:02:43.609Z,28.75
2023-02-27T18:05:10.818Z,28.76
2023-02-27T18:07:38.109Z,29.03
2023-02-27T18:10:06.214Z,29.10
2023-02-27T18:12:33.441Z,29.37
2023-02-27T18:15:00.898Z,29.11
2023-02-27T18:17:28.953Z,29.42
2023-02-27T18:19:58.019Z,29.49
2023-02-27T18:22:25.442Z,29.50
2023-02-27T18:24:53.962Z,30.31
2023-02-27T18:27:22.210Z,30.04
2023-02-27T18:29:49.826Z,30.51
2023-02-27T18:32:18.267Z,29.96
2023-02-27T18:34:45.783Z,30.65
2023-02-27T18:37:13.112Z,30.84
2023-02-27T18:39:42.204Z,31.62
2023-02-27T18:42:09.422Z,30.98
2023-02-27T18:44:38.557Z,30.36
2023-02-27T18:47:06.967Z,31.48
2023-02-27T18:49:34.132Z,31.26
2023-02-27T18:52:01.726Z,31.63
2023-02-27T18:54:29.574Z,31.88
2023-02-27T18:56:56.776Z,32.55
2023-02-27T18:59:24.128Z,31.99
2023-02-27T19:01:51.837Z,32.80
2023-02-27T19:04:19.055Z,35.02
2023-02-27T19:06:46.671Z,35.36
2023-02-27T19:09:16.252Z,37.13
2023-02-27T19:11:44.510Z,34.49
2023-02-27T19:14:12.368Z,33.77
2023-02-27T19:16:40.240Z,35.41
2023-02-27T19:19:09.767Z,35.38
2023-02-27T19:21:37.182Z,35.48
2023-02-27T19:24:04.977Z,37.01
2023-02-27T19:26:32.896Z,38.57
2023-02-27T19:29:00.261Z,37.93
2023-02-27T19:31:28.631Z,36.24
2023-02-27T19:33:56.128Z,36.05
2023-02-27T19:36:23.909Z,36.14
2023-02-27T19:38:52.574Z,35.24
2023-02-27T19:41:20.625Z,36.43
2023-02-27T19:43:47.886Z,35.95
2023-02-27T19:46:17.432Z,34.67
2023-02-27T19:48:45.348Z,36.50
2023-02-27T19:51:13.873Z,35.93
2023-02-27T19:53:42.208Z,36.23
2023-02-27T19:56:11.106Z,36.96
2023-02-27T19:58:39.306Z,36.88
2023-02-27T20:01:07.015Z,37.62
2023-02-27T20:03:34.621Z,38.06
2023-02-27T20:06:06.302Z,39.69
2023-02-27T20:08:34.696Z,39.59
2023-02-27T20:11:05.003Z,38.37
2023-02-27T20:13:32.364Z,40.34
2023-02-27T20:16:01.231Z,38.62
2023-02-27T20:18:29.929Z,37.04
2023-02-27T20:21:30.049Z,36.84
2023-02-27T20:23:58.139Z,37.94
2023-02-27T20:26:29.995Z,37.39
2023-02-27T20:28:59.343Z,38.22
2023-02-27T20:31:28.518Z,40.23
2023-02-27T20:33:57.131Z,37.82
2023-02-27T20:36:24.837Z,38.28
2023-02-27T20:38:52.675Z,37.70
2023-02-27T20:41:20.714Z,35.37
2023-02-27T20:43:49.310Z,36.50
2023-02-27T20:46:18.810Z,38.78
2023-02-27T20:48:46.486Z,36.17
2023-02-27T20:51:19.957Z,35.43
2023-02-27T20:53:48.306Z,37.37
2023-02-27T20:56:15.717Z,35.42
2023-02-27T20:58:44.085Z,34.35
2023-02-27T21:01:11.924Z,33.73
2023-02-27T21:03:39.813Z,36.71
2023-02-27T21:06:07.910Z,34.86
2023-02-27T21:08:38.477Z,35.90
2023-02-27T21:11:06.659Z,33.82
2023-02-27T21:13:33.889Z,33.63
2023-02-27T21:16:01.247Z,33.79
2023-02-27T21:18:28.720Z,33.94
2023-02-27T21:20:58.157Z,33.45
2023-02-27T21:23:25.337Z,32.78
2023-02-27T21:25:53.699Z,34.09
2023-02-27T21:28:20.994Z,33.18
2023-02-27T21:30:48.236Z,32.31
2023-02-27T21:33:15.692Z,33.53
2023-02-27T21:35:46.711Z,35.36
2023-02-27T21:38:14.103Z,33.74
2023-02-27T21:40:41.746Z,32.49
2023-02-27T21:43:09.180Z,32.46
2023-02-27T21:45:41.520Z,34.27
2023-02-27T21:48:08.953Z,35.14
2023-02-27T21:50:36.648Z,34.91
2023-02-27T21:53:03.777Z,33.92
2023-02-27T21:55:31.218Z,35.04
2023-02-27T21:57:58.332Z,35.71
2023-02-27T22:00:28.511Z,35.67
2023-02-27T22:02:55.948Z,34.46
2023-02-27T22:05:23.162Z,35.87
2023-02-27T22:07:50.291Z,35.82
2023-02-27T22:10:17.727Z,37.12
2023-02-27T22:12:44.893Z,35.45
2023-02-27T22:15:12.131Z,34.39
2023-02-27T22:17:39.525Z,34.49
2023-02-27T22:20:07.204Z,33.34
2023-02-27T22:22:34.382Z,34.32
2023-02-27T22:25:01.906Z,33.67
2023-02-27T22:27:29.092Z,33.17
2023-02-27T22:29:56.203Z,33.06
2023-02-27T22:32:23.703Z,32.51
2023-02-27T22:34:51.129Z,32.07
2023-02-27T22:37:19.838Z,32.13
2023-02-27T22:39:47.335Z,31.49
2023-02-27T22:42:14.612Z,31.63
2023-02-27T22:44:41.774Z,31.91
2023-02-27T22:47:10.156Z,32.96
2023-02-27T22:49:39.101Z,33.63
2023-02-27T22:52:06.230Z,33.56
2023-02-27T22:54:33.657Z,32.62
2023-02-27T22:57:00.809Z,31.52
2023-02-27T22:59:28.016Z,31.10
2023-02-27T23:01:55.450Z,31.58
2023-02-27T23:04:22.716Z,31.21
2023-02-27T23:06:52.261Z,31.33
2023-02-27T23:09:21.002Z,31.12
2023-02-27T23:11:48.254Z,31.26
2023-02-27T23:14:15.705Z,31.36
2023-02-27T23:16:46.676Z,31.14
2023-02-27T23:19:14.835Z,31.42
2023-02-27T23:21:42.002Z,31.40
2023-02-27T23:24:10.525Z,31.55
2023-02-27T23:26:38.534Z,32.18
2023-02-27T23:29:06.209Z,31.96
2023-02-27T23:31:35.425Z,31.81
2023-02-27T23:34:03.804Z,32.14
2023-02-27T23:36:30.951Z,32.42
2023-02-27T23:38:59.296Z,32.82
2023-02-27T23:41:26.820Z,32.39
2023-02-27T23:43:54.356Z,32.05
2023-02-27T23:46:21.759Z,31.69
2023-02-27T23:48:48.942Z,31.74
2023-02-27T23:51:16.222Z,31.66
2023-02-27T23:53:43.614Z,31.44
2023-02-27T23:56:16.818Z,31.54
2023-02-27T23:58:44.563Z,31.71
